Date,TemperatureHighF,TemperatureAvgF,TemperatureLowF,DewpointHighF,DewpointAvgF,DewpointLowF,HumidityHigh,HumidityAvg,HumidityLow,PressureMaxIn,PressureMinIn,WindSpeedMaxMPH,WindSpeedAvgMPH,GustSpeedMaxMPH,PrecipitationSumIn
2013-11-2,39,38,38,-100,-100,-100,0,0,100,0.00,40.00,0,-999,0,0.00
2013-11-3,47,38,29,-100,-100,-100,0,0,100,0.00,40.00,0,-999,0,0.00
2013-11-4,34,25,15,-100,-100,-100,0,0,100,0.00,40.00,0,-999,0,0.00
2013-11-5,44,36,27,-100,-100,-100,0,0,100,0.00,40.00,0,-999,0,0.00
2013-11-6,37,37,37,-100,-100,-100,0,0,100,0.00,40.00,0,-999,0,0.00
2013-11-7,42,42,41,-100,-100,-100,0,0,100,0.00,40.00,0,-999,0,0.00
2013-11-8,51,41,32,-100,-100,-100,0,0,100,0.00,40.00,0,-999,0,0.00
2013-11-12,51,48,46,-100,-100,-100,0,0,100,0.00,40.00,0,-999,0,0.00
2013-11-13,51,46,42,-100,-100,-100,0,0,100,0.00,40.00,0,-999,0,0.00
2013-11-14,43,40,38,-100,-100,-100,0,0,100,0.00,40.00,0,-999,0,0.00
2013-11-15,37,36,34,-100,-100,-100,0,0,100,0.00,40.00,0,-999,0,0.00
2013-11-16,33,30,28,-100,-100,-100,0,0,100,0.00,40.00,0,-999,0,0.00
2013-11-17,53,40,27,-100,-100,-100,0,0,100,0.00,40.00,0,-999,0,0.00
2013-11-18,45,38,34,-100,-100,-100,0,0,100,0.00,40.00,0,-999,0,0.00
2013-11-19,39,36,33,-100,-100,-100,0,0,100,0.00,40.00,0,-999,0,0.01
2013-11-20,34,32,29,-100,-100,-100,0,0,100,0.00,40.00,0,-999,0,0.02
2013-11-21,31,22,18,-100,-100,-100,0,0,100,0.00,40.00,0,-999,0,0.01
2013-11-22,22,18,15,-100,-100,-100,0,0,100,0.00,40.00,0,-999,0,0.00
2013-11-23,32,24,18,-100,-100,-100,0,0,100,0.00,40.00,0,-999,0,0.00
2013-11-24,37,30,24,-100,-100,-100,0,0,100,0.00,40.00,0,-999,0,0.00
2013-11-25,26,26,26,-100,-100,-100,0,0,100,0.00,40.00,0,-999,0,0.00
2013-11-26,52,36,28,-100,-100,-100,0,0,100,0.00,40.00,0,-999,0,0.00
2013-11-27,43,33,26,-100,-100,-100,0,0,100,0.00,40.00,0,-999,0,0.00
2013-11-28,38,28,21,-100,-100,-100,0,0,100,0.00,40.00,0,-999,0,0.00
2013-11-29,40,40,39,-100,-100,-100,0,0,100,0.00,40.00,0,-999,0,0.00
2013-11-30,44,32,16,-100,-100,-100,0,0,100,0.00,40.00,0,-999,0,0.00